Time;durP1;ratioP1;P1;durP2;ratioP2;P2;SDS_P1;SDS_P2;PMS_P1;PMS_P2;Temp;Humidity;BMP_temperature;BMP_pressure;BME280_temperature;BME280_humidity;BME280_pressure;Samples;Min_cycle;Max_cycle;Signal;HPM_P1;HPM_P2
2023/08/04 00:00:54;;;;;;;4.60;4.20;;;20.30;94.70;;;;;;5054568;28;20192;-85
2023/08/04 00:03:20;;;;;;;4.45;4.03;;;20.30;94.70;;;;;;5037948;28;20162;-84
2023/08/04 00:05:46;;;;;;;4.40;4.00;;;20.30;94.80;;;;;;5055999;28;20640;-85
2023/08/04 00:08:12;;;;;;;4.15;3.83;;;20.30;94.70;;;;;;5056020;28;20497;-83
2023/08/04 00:10:37;;;;;;;4.32;3.92;;;20.30;94.70;;;;;;5062333;28;20224;-86
2023/08/04 00:13:03;;;;;;;4.57;3.72;;;20.30;94.60;;;;;;5057751;28;20165;-84
2023/08/04 00:15:29;;;;;;;4.00;3.70;;;20.30;94.60;;;;;;5075672;28;20489;-84
2023/08/04 00:17:56;;;;;;;4.43;4.03;;;20.30;94.60;;;;;;5074649;28;20672;-84
2023/08/04 00:20:22;;;;;;;4.50;4.10;;;20.30;94.60;;;;;;5075552;28;20249;-85
2023/08/04 00:22:48;;;;;;;5.03;4.07;;;20.40;94.70;;;;;;5076121;28;20609;-85
2023/08/04 00:25:14;;;;;;;4.43;4.03;;;20.20;94.60;;;;;;5074245;28;20291;-83
2023/08/04 00:27:40;;;;;;;4.03;3.70;;;20.30;94.60;;;;;;5074322;28;20647;-85
2023/08/04 00:30:09;;;;;;;4.40;4.00;;;20.30;94.60;;;;;;5075393;28;20150;-85
2023/08/04 00:32:35;;;;;;;4.40;4.00;;;20.40;94.60;;;;;;5075358;28;20159;-86
2023/08/04 00:35:03;;;;;;;4.75;4.25;;;20.30;94.60;;;;;;5075571;28;20165;-83
2023/08/04 00:37:29;;;;;;;4.45;4.05;;;20.30;94.50;;;;;;5058345;28;20200;-84
2023/08/04 00:39:55;;;;;;;4.57;4.18;;;20.20;94.50;;;;;;5075255;28;20158;-85
2023/08/04 00:42:21;;;;;;;4.57;4.03;;;20.30;94.60;;;;;;5075516;28;20153;-85
2023/08/04 00:44:47;;;;;;;4.63;3.95;;;20.30;94.50;;;;;;5073804;28;20173;-83
2023/08/04 00:47:12;;;;;;;4.53;4.13;;;20.30;94.50;;;;;;5074966;28;20149;-85
2023/08/04 00:49:39;;;;;;;4.50;4.10;;;20.30;94.50;;;;;;5073804;28;20161;-86
2023/08/04 00:52:05;;;;;;;4.30;3.95;;;20.40;94.60;;;;;;5074054;28;20248;-86
2023/08/04 00:54:32;;;;;;;4.20;3.80;;;20.30;94.50;;;;;;5074128;28;20172;-85
2023/08/04 00:56:57;;;;;;;4.38;3.97;;;20.30;94.60;;;;;;5074825;28;20224;-87
2023/08/04 00:59:23;;;;;;;4.28;3.88;;;20.30;94.40;;;;;;5073890;28;20182;-85
2023/08/04 01:01:53;;;;;;;4.40;4.00;;;20.30;94.50;;;;;;5074816;28;20153;-86
2023/08/04 01:04:19;;;;;;;4.55;4.15;;;20.30;94.50;;;;;;5039805;28;20177;-85
2023/08/04 01:06:59;;;;;;;4.20;3.80;;;20.30;94.50;;;;;;5073484;28;20634;-85
2023/08/04 01:10:01;;;;;;;4.40;4.00;;;20.30;94.30;;;;;;5056637;28;20274;-85
2023/08/04 01:12:51;;;;;;;4.40;4.00;;;20.30;94.40;;;;;;5074052;28;20278;-84
2023/08/04 01:15:17;;;;;;;4.60;4.20;;;20.30;94.40;;;;;;5059611;28;20219;-86
2023/08/04 01:17:44;;;;;;;4.47;4.07;;;20.30;94.40;;;;;;5074310;28;20197;-86
2023/08/04 01:20:10;;;;;;;4.15;3.78;;;20.30;94.50;;;;;;5056493;28;20166;-85
2023/08/04 01:22:36;;;;;;;4.20;3.80;;;20.30;94.50;;;;;;5074266;28;20492;-87
2023/08/04 01:25:02;;;;;;;4.30;3.90;;;20.30;94.40;;;;;;5073346;28;20165;-85
2023/08/04 01:27:33;;;;;;;4.28;3.88;;;20.30;94.40;;;;;;5056400;28;20258;-88
2023/08/04 01:30:02;;;;;;;4.32;3.92;;;20.30;94.30;;;;;;5056312;28;20295;-85
2023/08/04 01:32:28;;;;;;;4.68;4.25;;;20.30;94.30;;;;;;5072978;28;20202;-87
2023/08/04 01:34:54;;;;;;;4.38;3.97;;;20.40;94.20;;;;;;5073524;28;20158;-86
2023/08/04 01:37:20;;;;;;;4.13;3.78;;;20.30;94.20;;;;;;5072913;28;20188;-85
2023/08/04 01:39:46;;;;;;;4.72;4.32;;;20.40;94.20;;;;;;5074071;28;20240;-84
2023/08/04 01:42:12;;;;;;;4.60;4.20;;;20.30;94.20;;;;;;5072951;28;20631;-85
2023/08/04 01:44:38;;;;;;;4.72;4.32;;;20.30;94.20;;;;;;5072722;28;20181;-86
2023/08/04 01:47:05;;;;;;;4.28;3.88;;;20.30;94.00;;;;;;5072596;28;20179;-85
2023/08/04 01:49:31;;;;;;;4.18;3.80;;;20.50;94.20;;;;;;5073896;28;20180;-87
2023/08/04 01:51:57;;;;;;;4.05;3.75;;;20.40;94.20;;;;;;5073756;28;20674;-86
2023/08/04 01:54:23;;;;;;;4.53;4.13;;;20.30;94.30;;;;;;5055882;28;20154;-85
2023/08/04 01:56:49;;;;;;;4.25;3.90;;;20.30;94.10;;;;;;5072366;28;20552;-86
2023/08/04 01:59:15;;;;;;;5.35;3.67;;;20.30;94.20;;;;;;5056098;28;20145;-86
2023/08/04 02:01:41;;;;;;;4.35;3.95;;;20.30;94.20;;;;;;5056213;28;20177;-84
2023/08/04 02:04:07;;;;;;;4.15;3.75;;;20.30;94.20;;;;;;5073555;28;20153;-87
2023/08/04 02:06:33;;;;;;;4.38;4.00;;;20.30;94.20;;;;;;5072346;28;20158;-84
2023/08/04 02:08:59;;;;;;;4.00;3.60;;;20.20;94.20;;;;;;5072649;28;20532;-85
2023/08/04 02:11:25;;;;;;;3.90;3.60;;;20.40;94.20;;;;;;5055389;28;20590;-86
2023/08/04 02:13:51;;;;;;;4.30;3.83;;;20.40;94.20;;;;;;5055712;28;20161;-85
2023/08/04 02:16:17;;;;;;;3.92;3.60;;;20.30;94.10;;;;;;5055842;28;20174;-85
2023/08/04 02:18:43;;;;;;;4.40;4.00;;;20.30;94.30;;;;;;5072070;28;20721;-86
2023/08/04 02:21:09;;;;;;;4.10;3.70;;;20.30;94.20;;;;;;5055577;28;20189;-87
2023/08/04 02:23:35;;;;;;;4.40;4.00;;;20.30;94.20;;;;;;5055252;28;20235;-86
2023/08/04 02:26:01;;;;;;;5.03;4.32;;;20.30;94.20;;;;;;5072313;28;20211;-85
2023/08/04 02:28:27;;;;;;;4.82;4.00;;;20.30;94.20;;;;;;5055519;28;20158;-87
2023/08/04 02:30:53;;;;;;;4.05;3.70;;;20.30;94.00;;;;;;5055360;28;20253;-85
2023/08/04 02:33:18;;;;;;;4.38;3.97;;;20.30;94.10;;;;;;5055335;28;20158;-87
2023/08/04 02:35:46;;;;;;;4.35;3.95;;;20.30;94.20;;;;;;5073253;28;20188;-87
2023/08/04 02:38:12;;;;;;;4.15;3.72;;;20.30;94.10;;;;;;5071778;28;20295;-84
2023/08/04 02:40:38;;;;;;;4.40;4.00;;;20.30;94.20;;;;;;5073341;28;20233;-87
2023/08/04 02:43:04;;;;;;;4.43;4.03;;;20.30;94.20;;;;;;5071918;28;20174;-86
2023/08/04 02:45:30;;;;;;;4.13;3.72;;;20.30;94.20;;;;;;5072005;28;20165;-85
2023/08/04 02:47:56;;;;;;;4.60;4.20;;;20.30;94.10;;;;;;5055661;28;20211;-85
2023/08/04 02:50:22;;;;;;;4.00;3.70;;;20.30;94.20;;;;;;5055105;28;20609;-85
2023/08/04 02:52:48;;;;;;;4.38;3.97;;;20.30;94.20;;;;;;5071878;28;20157;-84
2023/08/04 02:55:14;;;;;;;4.40;3.90;;;20.30;94.10;;;;;;5072992;28;20181;-85
2023/08/04 02:57:40;;;;;;;3.80;3.50;;;20.30;94.10;;;;;;5073236;28;20185;-86
2023/08/04 03:00:07;;;;;;;4.55;4.13;;;20.30;94.10;;;;;;5072455;28;20609;-86
2023/08/04 03:02:33;;;;;;;4.20;3.80;;;20.30;94.10;;;;;;5072927;28;20158;-87
2023/08/04 03:04:59;;;;;;;3.97;3.67;;;20.30;94.10;;;;;;5071744;28;20166;-86
2023/08/04 03:07:29;;;;;;;4.53;4.13;;;20.30;94.20;;;;;;5073190;28;20506;-86
2023/08/04 03:09:55;;;;;;;4.40;4.00;;;20.30;94.10;;;;;;5070830;28;20652;-86
2023/08/04 03:12:21;;;;;;;4.10;3.80;;;20.30;94.00;;;;;;5071759;28;20166;-85
2023/08/04 03:14:47;;;;;;;4.32;3.92;;;20.30;94.10;;;;;;5072918;28;20160;-86
2023/08/04 03:17:13;;;;;;;4.38;3.97;;;20.30;94.10;;;;;;5071487;28;20200;-87
2023/08/04 03:19:39;;;;;;;4.53;4.13;;;20.30;94.00;;;;;;5071912;28;20512;-85
2023/08/04 03:22:05;;;;;;;4.38;3.97;;;20.30;94.00;;;;;;5071625;28;20157;-86
2023/08/04 03:24:31;;;;;;;4.13;3.78;;;20.30;94.10;;;;;;5055381;28;20157;-84
2023/08/04 03:26:57;;;;;;;4.43;4.03;;;20.30;94.10;;;;;;5071683;28;20231;-85
2023/08/04 03:29:23;;;;;;;3.60;3.30;;;20.30;94.10;;;;;;5071582;28;20558;-86
2023/08/04 03:31:53;;;;;;;4.18;3.78;;;20.30;94.20;;;;;;5072711;28;20150;-86
2023/08/04 03:34:19;;;;;;;4.13;3.80;;;20.30;94.10;;;;;;5040595;28;20263;-85
2023/08/04 03:36:45;;;;;;;4.20;3.80;;;20.30;94.10;;;;;;5075730;28;20165;-87
2023/08/04 03:39:11;;;;;;;4.32;3.95;;;20.30;94.50;;;;;;5076535;28;20604;-85
2023/08/04 03:41:37;;;;;;;4.50;4.10;;;20.30;94.10;;;;;;5075857;28;20162;-86
2023/08/04 03:44:03;;;;;;;4.38;3.97;;;20.30;94.00;;;;;;5075009;28;20672;-85
2023/08/04 03:46:29;;;;;;;4.10;3.70;;;20.30;94.00;;;;;;5075255;28;20153;-85
2023/08/04 03:48:55;;;;;;;4.53;4.13;;;20.30;94.00;;;;;;5075019;28;20154;-86
2023/08/04 03:51:22;;;;;;;4.00;3.70;;;20.30;94.00;;;;;;5058217;28;20518;-86
2023/08/04 03:53:48;;;;;;;4.40;4.00;;;20.30;94.00;;;;;;5058650;28;20200;-84
2023/08/04 03:56:14;;;;;;;4.03;3.72;;;20.30;94.10;;;;;;5076122;28;20157;-86
2023/08/04 03:58:40;;;;;;;4.18;3.78;;;20.30;94.00;;;;;;5075068;28;20673;-85
2023/08/04 04:01:06;;;;;;;4.30;3.88;;;20.30;93.90;;;;;;5074766;28;20237;-86
2023/08/04 04:03:32;;;;;;;4.40;4.00;;;20.30;94.10;;;;;;5057888;28;20681;-85
2023/08/04 04:05:58;;;;;;;4.30;3.92;;;20.40;94.10;;;;;;5074613;28;20250;-85
2023/08/04 04:08:25;;;;;;;4.05;3.65;;;20.30;94.00;;;;;;5074656;28;20164;-85
2023/08/04 04:10:50;;;;;;;4.07;3.67;;;20.30;94.00;;;;;;5074887;28;20217;-84
2023/08/04 04:13:16;;;;;;;4.10;3.80;;;20.30;94.10;;;;;;5074483;28;20659;-85
2023/08/04 04:15:42;;;;;;;4.80;4.38;;;20.30;93.90;;;;;;5075640;28;20158;-84
2023/08/04 04:18:08;;;;;;;4.20;3.80;;;20.30;94.00;;;;;;5074730;28;20200;-84
2023/08/04 04:20:34;;;;;;;4.55;4.15;;;20.30;94.00;;;;;;5074462;28;20493;-84
2023/08/04 04:23:00;;;;;;;4.10;3.80;;;20.30;94.30;;;;;;5057568;28;20168;-85
2023/08/04 04:25:26;;;;;;;3.97;3.67;;;20.30;93.90;;;;;;5075890;28;20240;-86
2023/08/04 04:27:52;;;;;;;4.28;3.88;;;20.30;93.80;;;;;;5057482;28;20703;-86
2023/08/04 04:30:19;;;;;;;3.88;3.58;;;20.30;94.00;;;;;;5074261;28;20280;-84
2023/08/04 04:32:45;;;;;;;4.13;3.72;;;20.30;94.00;;;;;;5074161;28;20158;-86
2023/08/04 04:35:11;;;;;;;4.18;3.70;;;20.30;93.90;;;;;;5075331;28;20158;-86
2023/08/04 04:37:37;;;;;;;4.22;3.90;;;20.30;93.90;;;;;;5074203;28;20215;-85
2023/08/04 04:40:03;;;;;;;4.20;3.80;;;20.30;94.00;;;;;;5073954;28;20172;-86
2023/08/04 04:42:29;;;;;;;4.32;3.92;;;20.30;94.00;;;;;;5074034;28;20182;-85
2023/08/04 04:44:55;;;;;;;3.85;3.55;;;20.30;94.00;;;;;;5056808;28;20189;-84
2023/08/04 04:47:21;;;;;;;3.80;3.50;;;20.30;94.00;;;;;;5075084;28;20149;-86
2023/08/04 04:49:47;;;;;;;3.67;3.38;;;20.30;94.00;;;;;;5057862;28;20161;-86
2023/08/04 04:52:19;;;;;;;3.90;3.60;;;20.30;94.10;;;;;;5073791;28;20162;-85
2023/08/04 04:54:46;;;;;;;4.20;3.80;;;20.30;94.00;;;;;;5074092;28;20185;-86
2023/08/04 04:57:12;;;;;;;4.32;3.92;;;20.30;94.10;;;;;;5073678;28;20652;-85
2023/08/04 04:59:38;;;;;;;4.00;3.60;;;20.30;94.00;;;;;;5073650;28;20199;-84
2023/08/04 05:02:04;;;;;;;4.35;3.95;;;20.30;94.00;;;;;;5056994;28;20624;-87
2023/08/04 05:04:30;;;;;;;4.15;3.83;;;20.20;93.80;;;;;;5073626;28;20146;-84
2023/08/04 05:06:56;;;;;;;4.10;3.70;;;20.30;93.90;;;;;;5073569;28;20623;-84
2023/08/04 05:09:22;;;;;;;3.97;3.60;;;20.30;93.90;;;;;;5075008;28;20612;-84
2023/08/04 05:11:48;;;;;;;4.30;3.90;;;20.30;93.90;;;;;;5073223;28;20681;-86
2023/08/04 05:14:14;;;;;;;4.18;3.78;;;20.30;93.90;;;;;;5073679;28;20240;-85
2023/08/04 05:16:40;;;;;;;4.13;3.78;;;20.30;93.90;;;;;;5056580;28;20207;-85
2023/08/04 05:19:06;;;;;;;3.85;3.55;;;20.30;93.80;;;;;;5074065;28;20588;-85
2023/08/04 05:21:32;;;;;;;4.03;3.63;;;20.30;93.90;;;;;;5073459;28;20154;-85
2023/08/04 05:23:58;;;;;;;3.85;3.55;;;20.30;93.90;;;;;;5073459;28;20538;-84
2023/08/04 05:26:24;;;;;;;4.22;3.80;;;20.30;93.80;;;;;;5056313;28;20165;-86
2023/08/04 05:28:50;;;;;;;3.92;3.63;;;20.30;93.90;;;;;;5073166;28;20620;-84
2023/08/04 05:31:16;;;;;;;3.88;3.55;;;20.30;93.80;;;;;;5074503;28;20655;-85
2023/08/04 05:33:42;;;;;;;4.43;4.03;;;20.40;93.80;;;;;;5056216;28;20685;-84
2023/08/04 05:36:08;;;;;;;4.10;3.70;;;20.30;93.80;;;;;;5056582;28;20161;-85
2023/08/04 05:38:34;;;;;;;4.07;3.67;;;20.30;93.80;;;;;;5074553;28;20541;-84
2023/08/04 05:41:01;;;;;;;4.15;3.75;;;20.30;93.90;;;;;;5072781;28;20154;-87
2023/08/04 05:43:27;;;;;;;3.53;3.22;;;20.30;93.90;;;;;;5072881;28;20153;-86
2023/08/04 05:45:54;;;;;;;3.90;3.60;;;20.30;93.80;;;;;;5056017;28;20165;-87
2023/08/04 05:48:19;;;;;;;3.90;3.50;;;20.40;93.80;;;;;;5072984;28;20173;-84
2023/08/04 05:50:45;;;;;;;3.75;3.45;;;20.40;93.80;;;;;;5072944;28;20162;-85
2023/08/04 05:53:11;;;;;;;3.42;3.13;;;20.40;93.90;;;;;;5072638;28;20161;-87
2023/08/04 05:55:37;;;;;;;3.40;3.10;;;20.30;93.90;;;;;;5073069;28;20161;-85
2023/08/04 05:58:03;;;;;;;3.60;3.22;;;20.40;93.90;;;;;;5072480;28;20193;-86
2023/08/04 06:00:30;;;;;;;3.28;2.97;;;20.30;94.00;;;;;;5055789;28;20213;-87
2023/08/04 06:02:55;;;;;;;3.55;3.22;;;20.40;94.10;;;;;;5056274;28;20181;-84
2023/08/04 06:05:21;;;;;;;3.40;3.10;;;20.30;94.20;;;;;;5056086;28;20181;-85
2023/08/04 06:07:47;;;;;;;3.50;3.20;;;20.30;94.30;;;;;;5072489;28;20223;-86
2023/08/04 06:10:13;;;;;;;3.20;2.90;;;20.30;94.60;;;;;;5055343;28;20679;-86
2023/08/04 06:12:39;;;;;;;3.30;3.00;;;20.30;94.70;;;;;;5072451;28;20157;-86
2023/08/04 06:15:06;;;;;;;3.10;2.80;;;20.40;95.10;;;;;;5073168;28;20161;-85
2023/08/04 06:17:32;;;;;;;3.15;2.85;;;20.40;94.80;;;;;;5073801;28;20250;-86
2023/08/04 06:19:58;;;;;;;2.83;2.55;;;20.40;94.70;;;;;;5055492;28;20167;-87
2023/08/04 06:22:24;;;;;;;3.40;3.10;;;20.40;94.60;;;;;;5072265;28;20158;-87
2023/08/04 06:24:49;;;;;;;3.28;2.90;;;20.40;94.50;;;;;;5055422;28;20161;-85
2023/08/04 06:27:15;;;;;;;3.05;2.78;;;20.40;94.60;;;;;;5073538;28;20168;-87
2023/08/04 06:29:47;;;;;;;3.30;3.00;;;20.40;94.60;;;;;;5072921;28;20183;-86
2023/08/04 06:32:13;;;;;;;3.30;3.00;;;20.40;94.70;;;;;;5039944;28;20616;-86
2023/08/04 06:34:39;;;;;;;3.00;2.80;;;20.50;94.70;;;;;;5076316;28;20173;-86
2023/08/04 06:37:05;;;;;;;3.05;2.85;;;20.40;94.70;;;;;;5076756;28;20204;-84
2023/08/04 06:39:31;;;;;;;3.40;3.10;;;20.40;94.80;;;;;;5075764;28;20153;-86
2023/08/04 06:41:57;;;;;;;3.20;2.90;;;20.40;94.90;;;;;;5075915;28;20164;-86
2023/08/04 06:44:23;;;;;;;2.97;2.75;;;20.50;95.00;;;;;;5075966;28;20302;-85
2023/08/04 06:46:49;;;;;;;3.20;2.90;;;20.40;95.10;;;;;;5074117;28;20270;-85
2023/08/04 06:49:15;;;;;;;3.30;3.00;;;20.40;95.30;;;;;;5074188;28;20158;-86
2023/08/04 06:51:41;;;;;;;3.20;2.90;;;20.40;95.30;;;;;;5057523;28;20169;-86
2023/08/04 06:54:07;;;;;;;3.70;2.78;;;20.40;95.40;;;;;;5057288;28;20161;-86
2023/08/04 06:56:33;;;;;;;3.38;3.08;;;20.40;95.40;;;;;;5074366;28;20608;-86
2023/08/04 06:59:06;;;;;;;3.17;2.88;;;20.50;95.50;;;;;;5058283;28;20189;-86
2023/08/04 07:01:36;;;;;;;3.50;2.83;;;20.40;95.50;;;;;;5041238;28;20216;-87
2023/08/04 07:04:01;;;;;;;3.90;3.17;;;20.50;95.40;;;;;;5040730;28;20182;-87
2023/08/04 07:06:28;;;;;;;3.13;2.85;;;20.40;95.40;;;;;;5058407;28;20169;-87
2023/08/04 07:08:58;;;;;;;2.88;2.67;;;20.40;95.50;;;;;;5081421;28;20211;-88
2023/08/04 07:11:23;;;;;;;3.58;2.83;;;20.40;95.40;;;;;;5061254;28;20221;-85
2023/08/04 07:13:49;;;;;;;2.88;2.67;;;20.40;95.40;;;;;;5079071;28;20168;-85
2023/08/04 07:16:15;;;;;;;3.25;2.95;;;20.40;95.50;;;;;;5078622;28;20168;-84
2023/08/04 07:18:45;;;;;;;3.30;2.80;;;20.40;95.40;;;;;;5078344;28;20239;-86
2023/08/04 07:21:12;;;;;;;3.40;3.10;;;20.40;95.40;;;;;;5077154;28;20639;-86
2023/08/04 07:23:39;;;;;;;2.92;2.72;;;20.40;95.60;;;;;;5061403;28;20165;-85
2023/08/04 07:26:09;;;;;;;2.85;2.65;;;20.40;95.30;;;;;;5078181;28;20161;-85
2023/08/04 07:28:35;;;;;;;3.40;3.10;;;20.40;95.30;;;;;;5059478;28;20196;-84
2023/08/04 07:31:05;;;;;;;3.03;2.83;;;20.30;95.40;;;;;;5059906;28;20211;-84
2023/08/04 07:33:31;;;;;;;3.33;3.03;;;20.40;95.40;;;;;;5059889;28;20154;-85
2023/08/04 07:35:57;;;;;;;3.10;2.80;;;20.40;95.50;;;;;;5060608;28;20210;-86
2023/08/04 07:38:28;;;;;;;3.28;2.97;;;20.40;95.60;;;;;;5078171;28;20228;-86
2023/08/04 07:40:53;;;;;;;2.90;2.70;;;20.30;95.90;;;;;;5059478;28;20181;-86
2023/08/04 07:43:19;;;;;;;3.00;2.80;;;20.30;96.00;;;;;;5076484;28;20157;-84
2023/08/04 07:45:45;;;;;;;3.00;2.80;;;20.40;96.10;;;;;;5076630;28;20161;-87
2023/08/04 07:48:11;;;;;;;3.20;2.95;;;20.30;96.30;;;;;;5059408;28;20165;-86
2023/08/04 07:50:41;;;;;;;3.00;2.80;;;20.40;96.20;;;;;;5076184;28;20146;-83
2023/08/04 07:53:07;;;;;;;3.20;2.90;;;20.40;96.10;;;;;;5076360;28;20154;-85
2023/08/04 07:55:35;;;;;;;3.10;2.80;;;20.40;96.00;;;;;;5074569;28;20184;-87
2023/08/04 07:58:01;;;;;;;2.80;2.60;;;20.40;96.00;;;;;;5057120;28;20243;-85
2023/08/04 08:00:27;;;;;;;2.80;2.60;;;20.40;95.90;;;;;;5073851;28;20165;-85
2023/08/04 08:02:53;;;;;;;3.50;2.80;;;20.50;96.00;;;;;;5059821;28;20170;-87
2023/08/04 08:05:18;;;;;;;3.35;3.05;;;20.40;96.00;;;;;;5092364;28;20184;-85
2023/08/04 08:07:44;;;;;;;3.90;3.00;;;20.40;96.00;;;;;;5073983;28;20157;-87
2023/08/04 08:10:10;;;;;;;2.97;2.78;;;20.40;95.90;;;;;;5073149;28;20207;-86
2023/08/04 08:12:36;;;;;;;3.10;2.80;;;20.50;95.90;;;;;;5074629;28;20183;-85
2023/08/04 08:15:05;;;;;;;2.97;2.78;;;20.50;96.00;;;;;;5074600;28;20154;-86
2023/08/04 08:17:31;;;;;;;2.92;2.72;;;20.50;95.90;;;;;;5074438;28;20218;-85
2023/08/04 08:19:57;;;;;;;2.97;2.78;;;20.50;95.80;;;;;;5073045;28;20169;-86
2023/08/04 08:22:22;;;;;;;2.90;2.70;;;20.50;95.60;;;;;;5057593;28;20214;-87
2023/08/04 08:24:53;;;;;;;2.97;2.72;;;20.60;95.50;;;;;;5091536;28;20244;-86
2023/08/04 08:27:19;;;;;;;2.72;2.53;;;20.60;95.50;;;;;;5091041;28;20490;-86
2023/08/04 08:29:45;;;;;;;3.00;2.70;;;20.60;95.50;;;;;;5074034;28;20612;-86
2023/08/04 08:32:14;;;;;;;2.92;2.72;;;20.60;95.50;;;;;;5074031;28;20146;-87
2023/08/04 08:34:40;;;;;;;2.85;2.65;;;20.60;95.40;;;;;;5056569;28;20185;-86
2023/08/04 08:37:10;;;;;;;3.38;3.08;;;20.70;95.30;;;;;;5057149;28;20197;-85
2023/08/04 08:39:38;;;;;;;2.80;2.60;;;20.60;95.10;;;;;;5056125;28;20220;-85
2023/08/04 08:42:06;;;;;;;3.20;2.90;;;20.60;95.00;;;;;;5038615;28;20223;-86
2023/08/04 08:44:33;;;;;;;3.00;2.78;;;20.70;94.90;;;;;;5038574;28;20546;-86
2023/08/04 08:47:01;;;;;;;3.17;2.85;;;20.70;94.90;;;;;;5055092;28;20181;-87
2023/08/04 08:49:31;;;;;;;3.17;2.88;;;20.70;94.80;;;;;;5055145;28;20177;-85
2023/08/04 08:51:59;;;;;;;3.10;2.83;;;20.80;94.70;;;;;;5038747;28;20639;-87
2023/08/04 08:54:27;;;;;;;3.15;2.85;;;20.70;94.60;;;;;;5039861;28;20230;-87
2023/08/04 08:56:54;;;;;;;3.33;3.03;;;20.90;94.60;;;;;;5039997;28;20216;-87
2023/08/04 08:59:20;;;;;;;3.13;2.83;;;20.80;94.70;;;;;;5051942;28;20186;-88
2023/08/04 09:01:45;;;;;;;2.70;2.50;;;20.70;94.70;;;;;;5055801;28;20220;-87
2023/08/04 09:04:11;;;;;;;2.90;2.70;;;20.80;94.50;;;;;;5055333;28;20170;-86
2023/08/04 09:06:36;;;;;;;2.97;2.78;;;20.80;94.30;;;;;;5072822;28;20173;-86
2023/08/04 09:09:02;;;;;;;3.40;3.10;;;20.70;94.20;;;;;;5057546;28;20257;-87
2023/08/04 09:11:29;;;;;;;2.80;2.60;;;20.90;94.30;;;;;;5069462;28;20311;-87
2023/08/04 09:13:55;;;;;;;3.42;3.13;;;20.90;94.30;;;;;;5072195;28;20169;-85
2023/08/04 09:16:33;;;;;;;3.03;2.72;;;20.80;94.10;;;;;;5052791;28;20174;-86
2023/08/04 09:19:03;;;;;;;2.90;2.70;;;20.90;94.10;;;;;;5056710;28;20686;-85
2023/08/04 09:21:33;;;;;;;3.83;2.70;;;20.90;94.00;;;;;;5056793;28;20165;-86
2023/08/04 09:24:03;;;;;;;2.90;2.70;;;20.90;94.00;;;;;;5039536;28;20216;-85
2023/08/04 09:26:44;;;;;;;3.17;2.88;;;20.90;93.90;;;;;;5056796;28;20268;-88
2023/08/04 09:29:13;;;;;;;2.65;2.45;;;20.90;93.80;;;;;;5055314;28;20522;-86
2023/08/04 09:31:45;;;;;;;2.70;2.50;;;21.00;93.70;;;;;;5056754;28;20272;-86
2023/08/04 09:34:14;;;;;;;2.90;2.63;;;20.90;93.60;;;;;;5057127;28;20189;-85
2023/08/04 09:36:47;;;;;;;2.70;2.50;;;21.00;93.60;;;;;;5039892;28;20584;-88
2023/08/04 09:39:16;;;;;;;3.20;2.90;;;20.90;93.60;;;;;;5056528;28;20189;-86
2023/08/04 09:41:46;;;;;;;2.80;2.60;;;21.00;93.80;;;;;;5056384;28;20177;-85
2023/08/04 09:44:15;;;;;;;3.28;2.95;;;20.90;93.90;;;;;;5056280;28;20197;-86
2023/08/04 09:46:54;;;;;;;4.00;2.42;;;20.90;94.10;;;;;;5058588;28;20636;-86
2023/08/04 09:49:23;;;;;;;3.00;2.70;;;20.90;94.30;;;;;;5057568;28;20230;-86
2023/08/04 09:51:55;;;;;;;2.80;2.60;;;20.90;94.40;;;;;;5074067;28;20193;-85
2023/08/04 09:54:24;;;;;;;2.97;2.67;;;20.80;94.40;;;;;;5074522;28;20181;-86
2023/08/04 09:56:52;;;;;;;3.10;2.80;;;20.90;94.40;;;;;;5058029;28;20517;-87
2023/08/04 09:59:20;;;;;;;3.03;2.67;;;20.90;94.30;;;;;;5057852;28;20640;-87
2023/08/04 10:01:48;;;;;;;3.10;2.80;;;20.90;94.30;;;;;;5055987;28;20173;-85
2023/08/04 10:04:16;;;;;;;3.28;2.42;;;21.00;94.20;;;;;;5072920;28;20181;-87
2023/08/04 10:06:44;;;;;;;2.70;2.50;;;20.90;94.10;;;;;;5057045;28;20652;-87
2023/08/04 10:09:12;;;;;;;2.40;2.20;;;21.00;94.00;;;;;;5073376;28;20185;-84
2023/08/04 10:11:40;;;;;;;4.00;2.40;;;21.00;93.90;;;;;;5073778;28;20262;-87
2023/08/04 10:14:08;;;;;;;2.85;2.65;;;21.00;93.90;;;;;;5057575;28;20205;-86
2023/08/04 10:16:39;;;;;;;3.15;2.60;;;21.10;93.90;;;;;;5040186;28;20181;-86
2023/08/04 10:19:07;;;;;;;3.25;2.58;;;21.00;93.70;;;;;;5056552;28;20303;-86
2023/08/04 10:21:39;;;;;;;4.28;2.63;;;21.10;93.50;;;;;;5040050;28;20666;-86
2023/08/04 10:24:07;;;;;;;2.85;2.65;;;21.10;93.40;;;;;;5040893;28;20211;-87
2023/08/04 10:26:36;;;;;;;2.78;2.58;;;21.10;93.40;;;;;;5056903;28;20587;-86
2023/08/04 10:29:07;;;;;;;2.70;2.50;;;21.10;93.10;;;;;;5041221;28;20176;-87
2023/08/04 10:31:45;;;;;;;2.50;2.30;;;21.10;92.80;;;;;;5039816;28;20177;-87
2023/08/04 10:34:25;;;;;;;2.42;2.22;;;21.20;92.80;;;;;;5056699;28;20228;-86
2023/08/04 10:37:04;;;;;;;2.50;2.30;;;21.10;92.80;;;;;;5056052;28;20631;-87
2023/08/04 10:39:33;;;;;;;2.60;2.40;;;21.20;92.60;;;;;;5074468;28;20157;-85
2023/08/04 10:42:00;;;;;;;2.42;2.22;;;21.20;92.30;;;;;;5056444;28;20158;-86
2023/08/04 10:44:29;;;;;;;2.47;2.28;;;21.10;92.20;;;;;;5074746;28;20192;-87
2023/08/04 10:47:04;;;;;;;3.38;1.95;;;21.20;92.00;;;;;;5057773;28;20166;-86
2023/08/04 10:49:31;;;;;;;2.42;2.22;;;21.20;91.90;;;;;;5073821;28;20161;-86
2023/08/04 10:51:58;;;;;;;2.17;2.05;;;21.30;91.90;;;;;;5074625;28;20240;-86
2023/08/04 10:54:24;;;;;;;2.50;2.30;;;21.20;91.80;;;;;;5073119;28;20157;-87
2023/08/04 10:56:53;;;;;;;2.30;2.10;;;21.20;91.80;;;;;;5073003;28;20169;-87
2023/08/04 10:59:19;;;;;;;2.30;2.10;;;21.20;91.70;;;;;;5056144;28;20173;-88
2023/08/04 11:01:47;;;;;;;2.22;2.03;;;21.30;91.90;;;;;;5074891;28;20172;-86
2023/08/04 11:04:15;;;;;;;2.45;2.25;;;21.30;91.70;;;;;;5073004;28;20215;-87
2023/08/04 11:06:41;;;;;;;2.20;2.00;;;21.30;91.70;;;;;;5073562;28;20174;-86
2023/08/04 11:09:08;;;;;;;2.40;2.20;;;21.30;91.60;;;;;;5074525;28;20168;-88
2023/08/04 11:11:34;;;;;;;3.10;2.28;;;21.40;91.40;;;;;;5056019;28;20239;-87
2023/08/04 11:14:00;;;;;;;2.00;1.90;;;21.30;91.30;;;;;;5072736;28;20161;-87
2023/08/04 11:16:26;;;;;;;2.50;2.30;;;21.40;91.20;;;;;;5072967;28;20153;-87
2023/08/04 11:18:53;;;;;;;2.42;2.22;;;21.30;91.30;;;;;;5057502;28;20220;-86
2023/08/04 11:21:20;;;;;;;2.47;2.15;;;21.30;91.20;;;;;;5073908;28;20154;-86
2023/08/04 11:23:45;;;;;;;2.67;2.10;;;21.30;91.30;;;;;;5057302;28;20165;-86
2023/08/04 11:26:11;;;;;;;2.35;2.15;;;21.30;91.10;;;;;;5073501;28;20561;-87
2023/08/04 11:28:37;;;;;;;2.08;1.88;;;21.30;91.20;;;;;;5055276;28;20181;-87
2023/08/04 11:31:08;;;;;;;2.20;2.00;;;21.30;91.10;;;;;;5054676;28;20169;-85
2023/08/04 11:33:34;;;;;;;3.60;2.35;;;21.30;91.10;;;;;;5037719;28;20201;-85
2023/08/04 11:36:03;;;;;;;2.00;1.90;;;21.30;91.40;;;;;;5072975;28;20314;-85
2023/08/04 11:38:30;;;;;;;1.90;1.80;;;21.20;91.40;;;;;;5071570;28;20197;-85
2023/08/04 11:40:58;;;;;;;2.00;1.90;;;21.20;91.40;;;;;;5054958;28;20165;-87
2023/08/04 11:43:24;;;;;;;2.00;1.90;;;21.10;91.50;;;;;;5071796;28;20150;-85
2023/08/04 11:45:50;;;;;;;2.08;1.95;;;21.10;91.60;;;;;;5055119;28;20161;-88
2023/08/04 11:48:18;;;;;;;1.90;1.80;;;21.10;91.80;;;;;;5071552;28;20523;-87
2023/08/04 11:50:44;;;;;;;1.90;1.80;;;21.10;91.80;;;;;;5072703;28;20516;-85
2023/08/04 11:53:15;;;;;;;2.25;2.05;;;21.10;91.80;;;;;;5054791;28;20571;-86
2023/08/04 11:55:56;;;;;;;1.90;1.80;;;21.10;91.80;;;;;;5076113;28;20157;-86
2023/08/04 11:58:31;;;;;;;2.00;1.90;;;21.10;91.90;;;;;;5075037;28;20189;-87
2023/08/04 12:00:57;;;;;;;1.88;1.77;;;21.10;91.90;;;;;;5075245;28;20159;-87
2023/08/04 12:03:23;;;;;;;2.00;1.90;;;21.10;92.00;;;;;;5075893;28;20279;-87
2023/08/04 12:05:49;;;;;;;2.33;2.13;;;21.20;92.00;;;;;;5076021;28;20162;-87
2023/08/04 12:08:15;;;;;;;2.30;2.10;;;21.10;92.00;;;;;;5057972;28;20207;-85
2023/08/04 12:10:41;;;;;;;1.92;1.83;;;21.10;92.10;;;;;;5074550;28;20746;-86
2023/08/04 12:13:07;;;;;;;1.80;1.70;;;21.10;92.10;;;;;;5091881;28;20193;-87
2023/08/04 12:15:51;;;;;;;2.10;1.90;;;21.10;92.10;;;;;;5058351;28;20173;-87
2023/08/04 12:18:25;;;;;;;2.10;1.90;;;21.10;92.20;;;;;;5074418;28;20201;-86
2023/08/04 12:20:51;;;;;;;2.75;2.20;;;21.10;92.30;;;;;;5058488;28;20172;-87
2023/08/04 12:23:17;;;;;;;2.00;1.90;;;21.10;92.30;;;;;;5075939;28;20158;-87
2023/08/04 12:25:43;;;;;;;2.30;2.10;;;21.10;92.40;;;;;;5057616;28;20168;-86
2023/08/04 12:28:11;;;;;;;2.08;1.98;;;21.10;92.30;;;;;;5075565;28;20647;-87
2023/08/04 12:30:37;;;;;;;2.35;2.00;;;21.10;92.40;;;;;;5057971;28;20257;-85
2023/08/04 12:33:03;;;;;;;1.90;1.80;;;21.10;92.40;;;;;;5074268;28;20154;-87
2023/08/04 12:35:29;;;;;;;2.30;2.10;;;21.10;92.50;;;;;;5074155;28;20173;-85
2023/08/04 12:37:55;;;;;;;2.28;2.08;;;21.10;92.60;;;;;;5074076;28;20196;-85
2023/08/04 12:40:21;;;;;;;2.40;2.20;;;21.10;92.60;;;;;;5074092;28;20154;-87
2023/08/04 12:42:47;;;;;;;1.90;1.80;;;21.10;92.60;;;;;;5074415;28;20172;-87
2023/08/04 12:45:13;;;;;;;2.15;2.03;;;21.10;92.60;;;;;;5075946;28;20164;-87
2023/08/04 12:47:39;;;;;;;2.08;1.95;;;21.10;92.60;;;;;;5057580;28;20651;-86